Time;durP1;ratioP1;P1;durP2;ratioP2;P2;SDS_P1;SDS_P2;PMS_P1;PMS_P2;Temp;Humidity;BMP_temperature;BMP_pressure;BME280_temperature;BME280_humidity;BME280_pressure;Samples;Min_cycle;Max_cycle;Signal;HPM_P1;HPM_P2
2022/09/28 00:00:04;;;;;;;4.40;1.20;;;;;15.00;99375.00;;;;5008856;28;20232;-78
2022/09/28 00:02:32;;;;;;;2.58;1.02;;;;;15.00;99381.00;;;;5009384;28;20212;-78
2022/09/28 00:04:59;;;;;;;1.70;0.95;;;;;15.00;99371.00;;;;4996904;28;20216;-78
2022/09/28 00:07:27;;;;;;;1.15;0.93;;;;;15.00;99379.00;;;;5008515;28;20211;-78
2022/09/28 00:09:57;;;;;;;1.52;0.68;;;;;14.90;99385.00;;;;5008398;28;20239;-78
2022/09/28 00:12:24;;;;;;;1.42;0.80;;;;;14.90;99381.00;;;;5009927;28;20201;-78
2022/09/28 00:14:51;;;;;;;1.70;0.93;;;;;14.90;99378.00;;;;5009484;28;20212;-78
2022/09/28 00:17:21;;;;;;;1.63;0.93;;;;;14.90;99380.00;;;;5008514;28;20292;-78
2022/09/28 00:19:48;;;;;;;2.25;0.75;;;;;14.90;99378.00;;;;5021047;28;20242;-78
2022/09/28 00:22:16;;;;;;;1.00;0.75;;;;;14.80;99379.00;;;;5013023;28;20197;-78
2022/09/28 00:24:44;;;;;;;1.35;0.90;;;;;14.90;99382.00;;;;5007352;28;20204;-78
2022/09/28 00:27:13;;;;;;;1.63;0.93;;;;;14.80;99373.00;;;;5010604;28;20205;-78
2022/09/28 00:29:40;;;;;;;1.13;0.80;;;;;14.80;99377.00;;;;5008614;28;20225;-78
2022/09/28 00:32:10;;;;;;;1.92;1.00;;;;;14.80;99376.00;;;;5007253;28;20201;-78
2022/09/28 00:34:40;;;;;;;1.80;0.73;;;;;14.80;99375.00;;;;5009489;28;20200;-78
2022/09/28 00:37:08;;;;;;;0.88;0.82;;;;;14.70;99377.00;;;;5009732;28;20288;-78
2022/09/28 00:39:37;;;;;;;1.10;1.00;;;;;14.70;99375.00;;;;5004517;28;20305;-78
2022/09/28 00:42:10;;;;;;;1.17;1.02;;;;;14.70;99370.00;;;;5022609;28;20278;-78
2022/09/28 00:44:46;;;;;;;2.47;0.90;;;;;14.60;99362.00;;;;5018386;28;20209;-78
2022/09/28 00:47:36;;;;;;;1.25;0.73;;;;;14.60;99370.00;;;;5006684;28;20193;-78
2022/09/28 00:50:08;;;;;;;1.30;0.80;;;;;14.60;99363.00;;;;5001711;28;20342;-78
2022/09/28 00:52:39;;;;;;;1.00;0.90;;;;;14.60;99363.00;;;;5007170;28;20193;-78
2022/09/28 00:55:10;;;;;;;2.13;0.90;;;;;14.60;99361.00;;;;4997676;28;20208;-78
2022/09/28 00:57:39;;;;;;;1.23;0.85;;;;;14.60;99357.00;;;;5003495;28;20202;-78
2022/09/28 01:00:11;;;;;;;1.33;0.90;;;;;14.50;99358.00;;;;5009309;28;20255;-78
2022/09/28 01:02:38;;;;;;;1.83;0.57;;;;;14.60;99358.00;;;;5012312;28;20192;-78
2022/09/28 01:05:08;;;;;;;0.82;0.63;;;;;14.50;99355.00;;;;5007676;28;20236;-78
2022/09/28 01:07:37;;;;;;;0.95;0.80;;;;;14.50;99344.00;;;;5015756;28;20216;-78
2022/09/28 01:10:05;;;;;;;1.10;0.70;;;;;14.50;99345.00;;;;5018456;28;20228;-77
2022/09/28 01:12:32;;;;;;;1.13;0.95;;;;;14.50;99350.00;;;;5012220;28;20240;-77
2022/09/28 01:15:00;;;;;;;2.17;1.42;;;;;14.50;99352.00;;;;5005381;28;20209;-77
2022/09/28 01:17:36;;;;;;;0.80;0.80;;;;;14.40;99354.00;;;;5008032;28;20207;-78
2022/09/28 01:20:23;;;;;;;1.35;0.90;;;;;14.40;99345.00;;;;5008144;28;20590;-78
2022/09/28 01:23:28;;;;;;;1.05;0.95;;;;;14.30;99348.00;;;;5010057;28;20200;-78
2022/09/28 01:26:11;;;;;;;1.17;1.05;;;;;14.40;99347.00;;;;5006204;28;20208;-78
2022/09/28 01:28:42;;;;;;;1.15;0.82;;;;;14.40;99355.00;;;;5006941;28;20706;-78
2022/09/28 01:31:12;;;;;;;1.23;0.77;;;;;14.40;99348.00;;;;5008609;28;20205;-78
2022/09/28 01:33:42;;;;;;;1.30;1.02;;;;;14.40;99348.00;;;;5010830;28;20204;-78
2022/09/28 01:36:15;;;;;;;1.42;1.10;;;;;14.30;99343.00;;;;5005818;28;20201;-78
2022/09/28 01:38:46;;;;;;;1.33;0.80;;;;;14.30;99341.00;;;;5007269;28;20664;-78
2022/09/28 01:41:17;;;;;;;1.10;0.65;;;;;14.30;99342.00;;;;5008979;28;20192;-78
2022/09/28 01:43:49;;;;;;;1.02;0.88;;;;;14.30;99341.00;;;;5010745;28;20216;-78
2022/09/28 01:46:21;;;;;;;4.20;1.10;;;;;14.30;99349.00;;;;5005247;28;20205;-78
2022/09/28 01:48:53;;;;;;;1.58;0.95;;;;;14.30;99349.00;;;;5005584;28;20736;-78
2022/09/28 01:51:28;;;;;;;0.98;0.88;;;;;14.30;99344.00;;;;5011339;28;20196;-78
2022/09/28 01:54:00;;;;;;;1.42;0.90;;;;;14.30;99344.00;;;;5014342;28;20200;-77
2022/09/28 01:56:35;;;;;;;1.30;1.00;;;;;14.30;99350.00;;;;5016848;28;20196;-78
2022/09/28 01:59:08;;;;;;;1.15;0.98;;;;;14.30;99349.00;;;;5010737;28;20235;-78
2022/09/28 02:01:40;;;;;;;1.05;0.90;;;;;14.20;99348.00;;;;5013432;28;20212;-78
2022/09/28 02:04:12;;;;;;;3.58;1.40;;;;;14.20;99347.00;;;;5002229;28;20212;-78
2022/09/28 02:06:46;;;;;;;1.30;1.10;;;;;14.20;99338.00;;;;5014305;28;20694;-78
2022/09/28 02:09:18;;;;;;;1.80;1.20;;;;;14.20;99338.00;;;;5013304;28;20709;-78
2022/09/28 02:11:52;;;;;;;1.50;1.40;;;;;14.20;99337.00;;;;5026584;28;20203;-78
2022/09/28 02:14:20;;;;;;;1.88;1.05;;;;;14.20;99333.00;;;;5018833;28;20211;-77
2022/09/28 02:16:50;;;;;;;1.35;1.25;;;;;14.20;99331.00;;;;5019983;28;20207;-78
2022/09/28 02:19:19;;;;;;;1.90;1.48;;;;;14.10;99337.00;;;;5027238;28;20207;-78
2022/09/28 02:21:53;;;;;;;1.42;1.27;;;;;14.10;99332.00;;;;5001294;28;20217;-78
2022/09/28 02:24:26;;;;;;;1.48;1.35;;;;;14.10;99330.00;;;;5007643;28;20200;-78
2022/09/28 02:26:59;;;;;;;1.77;1.50;;;;;14.10;99337.00;;;;5015652;28;20211;-78
2022/09/28 02:29:27;;;;;;;1.95;1.30;;;;;14.10;99346.00;;;;5011455;28;20801;-78
2022/09/28 02:31:54;;;;;;;1.50;1.20;;;;;14.10;99346.00;;;;5012060;28;20693;-78
2022/09/28 02:34:22;;;;;;;2.63;1.52;;;;;14.10;99339.00;;;;5015682;28;20671;-78
2022/09/28 02:36:49;;;;;;;1.77;1.42;;;;;14.10;99334.00;;;;5015137;28;20193;-78
2022/09/28 02:39:17;;;;;;;1.30;1.20;;;;;14.10;99340.00;;;;5007691;28;20201;-78
2022/09/28 02:42:01;;;;;;;1.77;1.60;;;;;14.00;99343.00;;;;5014895;28;20226;-78
2022/09/28 02:44:50;;;;;;;5.97;1.92;;;;;14.00;99344.00;;;;5012014;28;20200;-78
2022/09/28 02:47:27;;;;;;;2.63;1.60;;;;;14.10;99344.00;;;;5028735;28;20601;-78
2022/09/28 02:50:03;;;;;;;1.60;1.38;;;;;14.10;99340.00;;;;5015021;28;20263;-78
2022/09/28 02:52:48;;;;;;;2.60;1.73;;;;;14.00;99349.00;;;;5017957;28;20198;-78
2022/09/28 02:55:37;;;;;;;3.15;1.55;;;;;14.00;99344.00;;;;5002347;28;21058;-78
2022/09/28 02:58:18;;;;;;;1.80;1.70;;;;;14.00;99353.00;;;;5012076;28;20203;-78
2022/09/28 03:00:54;;;;;;;1.50;1.13;;;;;14.10;99345.00;;;;5026120;28;20204;-78
2022/09/28 03:03:32;;;;;;;2.15;1.75;;;;;14.10;99346.00;;;;5011115;28;20196;-78
2022/09/28 03:06:04;;;;;;;1.67;1.50;;;;;14.10;99347.00;;;;5010494;28;20196;-78
2022/09/28 03:08:34;;;;;;;1.65;1.40;;;;;14.10;99340.00;;;;5015875;28;20769;-79
2022/09/28 03:11:05;;;;;;;1.35;1.25;;;;;14.10;99344.00;;;;5013362;28;20220;-78
2022/09/28 03:13:35;;;;;;;3.30;1.35;;;;;14.10;99350.00;;;;5005860;28;20196;-78
2022/09/28 03:16:13;;;;;;;1.60;1.05;;;;;14.00;99351.00;;;;5013672;28;20191;-78
2022/09/28 03:18:41;;;;;;;3.92;1.35;;;;;14.10;99352.00;;;;5005879;28;20204;-78
2022/09/28 03:21:10;;;;;;;1.80;1.45;;;;;14.10;99347.00;;;;5010134;28;20209;-79
2022/09/28 03:23:38;;;;;;;3.15;1.30;;;;;14.10;99356.00;;;;5014496;28;20205;-79
2022/09/28 03:26:07;;;;;;;1.60;1.30;;;;;14.10;99356.00;;;;5009829;28;20212;-79
2022/09/28 03:28:36;;;;;;;3.63;1.70;;;;;14.00;99364.00;;;;5006452;28;20213;-79
2022/09/28 03:31:03;;;;;;;1.50;1.25;;;;;14.10;99365.00;;;;5010460;28;20311;-79
2022/09/28 03:33:30;;;;;;;2.42;1.40;;;;;14.00;99362.00;;;;5011967;28;20197;-79
2022/09/28 03:35:58;;;;;;;2.08;1.73;;;;;14.00;99360.00;;;;5009695;28;20204;-79
2022/09/28 03:38:25;;;;;;;1.52;1.42;;;;;14.00;99358.00;;;;5017014;28;20197;-79
2022/09/28 03:40:54;;;;;;;2.78;1.73;;;;;14.00;99355.00;;;;5012516;28;20205;-79
2022/09/28 03:43:22;;;;;;;2.05;1.20;;;;;13.90;99359.00;;;;5011764;28;20206;-79
2022/09/28 03:45:54;;;;;;;1.40;1.27;;;;;13.90;99353.00;;;;5007036;28;20410;-79
2022/09/28 03:48:25;;;;;;;2.15;1.40;;;;;13.90;99353.00;;;;5010821;28;20551;-79
2022/09/28 03:50:56;;;;;;;1.70;1.20;;;;;13.90;99350.00;;;;5008929;28;20236;-79
2022/09/28 03:53:24;;;;;;;1.95;1.75;;;;;13.90;99342.00;;;;5012039;28;20205;-79
2022/09/28 03:55:53;;;;;;;1.95;1.35;;;;;13.80;99348.00;;;;5008766;28;20232;-78
2022/09/28 03:58:20;;;;;;;1.40;1.30;;;;;13.80;99344.00;;;;5018079;28;20224;-79
2022/09/28 04:00:48;;;;;;;1.70;1.35;;;;;13.80;99349.00;;;;5006352;28;20209;-79
2022/09/28 04:03:18;;;;;;;2.58;1.60;;;;;13.70;99341.00;;;;5008727;28;20208;-79
2022/09/28 04:05:54;;;;;;;2.83;1.55;;;;;13.70;99343.00;;;;5000695;28;20193;-78
2022/09/28 04:08:22;;;;;;;3.40;1.70;;;;;13.70;99339.00;;;;5021560;28;20216;-78
2022/09/28 04:10:49;;;;;;;1.83;1.60;;;;;13.70;99348.00;;;;5019905;28;20229;-78
2022/09/28 04:13:16;;;;;;;1.63;1.48;;;;;13.70;99348.00;;;;5019843;28;20208;-78
2022/09/28 04:15:51;;;;;;;2.10;1.63;;;;;13.60;99347.00;;;;5014802;28;20571;-79
2022/09/28 04:18:20;;;;;;;1.23;1.02;;;;;13.60;99343.00;;;;5020369;28;20215;-79
2022/09/28 04:20:48;;;;;;;2.05;1.33;;;;;13.60;99357.00;;;;4998747;28;20782;-79
2022/09/28 04:23:15;;;;;;;2.42;1.50;;;;;13.50;99358.00;;;;5014864;28;20200;-78
2022/09/28 04:25:45;;;;;;;1.55;0.98;;;;;13.50;99353.00;;;;5016929;28;20209;-78
2022/09/28 04:30:58;;;;;;;1.33;1.13;;;;;13.40;99355.00;;;;5006214;28;20235;-79
2022/09/28 04:33:27;;;;;;;1.50;0.95;;;;;13.40;99358.00;;;;5009481;28;20193;-79
2022/09/28 04:35:54;;;;;;;2.40;1.17;;;;;13.40;99361.00;;;;5008899;28;20197;-79
2022/09/28 04:38:21;;;;;;;1.30;1.20;;;;;13.40;99363.00;;;;5001014;28;20201;-78
2022/09/28 04:40:49;;;;;;;2.92;1.05;;;;;13.40;99364.00;;;;5009366;28;20209;-79
2022/09/28 04:43:17;;;;;;;1.67;1.00;;;;;13.30;99357.00;;;;5010453;28;20201;-78
2022/09/28 04:45:44;;;;;;;1.52;1.00;;;;;13.30;99361.00;;;;5005913;28;20288;-79
2022/09/28 04:48:11;;;;;;;1.38;1.20;;;;;13.30;99356.00;;;;5007417;28;20205;-78
2022/09/28 04:50:40;;;;;;;2.13;1.20;;;;;13.30;99364.00;;;;5008362;28;20225;-79
2022/09/28 04:53:07;;;;;;;1.35;1.02;;;;;13.20;99363.00;;;;5008291;28;20193;-78
2022/09/28 04:55:35;;;;;;;1.90;1.20;;;;;13.20;99363.00;;;;5008036;28;20285;-78
2022/09/28 04:58:04;;;;;;;1.63;1.20;;;;;13.20;99364.00;;;;5010149;28;20212;-79
2022/09/28 05:00:34;;;;;;;1.20;1.10;;;;;13.20;99375.00;;;;5011123;28;20225;-79
2022/09/28 05:03:02;;;;;;;1.95;1.52;;;;;13.20;99367.00;;;;5008117;28;20201;-78
2022/09/28 05:05:29;;;;;;;1.33;1.23;;;;;13.10;99373.00;;;;5009294;28;20208;-79
2022/09/28 05:07:59;;;;;;;1.67;1.10;;;;;13.10;99375.00;;;;5014218;28;20216;-78
2022/09/28 05:10:26;;;;;;;1.90;1.27;;;;;13.10;99368.00;;;;5004806;28;20227;-79
2022/09/28 05:12:53;;;;;;;1.85;1.45;;;;;13.10;99366.00;;;;5009566;28;20197;-79
2022/09/28 05:15:21;;;;;;;2.63;1.38;;;;;13.10;99368.00;;;;5005134;28;20197;-78
2022/09/28 05:17:48;;;;;;;1.92;1.30;;;;;13.10;99368.00;;;;5005825;28;20228;-79
2022/09/28 05:20:15;;;;;;;7.85;1.40;;;;;13.00;99362.00;;;;5005398;28;20193;-78
2022/09/28 05:22:43;;;;;;;3.03;1.23;;;;;13.00;99372.00;;;;5007686;28;20208;-79
2022/09/28 05:25:11;;;;;;;1.88;0.98;;;;;13.00;99374.00;;;;5010311;28;20204;-78
2022/09/28 05:27:39;;;;;;;1.50;0.93;;;;;13.00;99374.00;;;;5003792;28;20200;-79
2022/09/28 05:30:09;;;;;;;2.33;2.00;;;;;12.90;99377.00;;;;5005277;28;20465;-77
2022/09/28 05:32:40;;;;;;;3.53;1.98;;;;;13.00;99384.00;;;;5006701;28;20270;-80
2022/09/28 05:35:09;;;;;;;1.50;1.40;;;;;13.00;99381.00;;;;5002494;28;20192;-80
2022/09/28 05:37:37;;;;;;;2.33;1.30;;;;;13.00;99374.00;;;;5004015;28;20200;-82
2022/09/28 05:40:05;;;;;;;1.40;1.00;;;;;13.00;99382.00;;;;5002933;28;20662;-80
2022/09/28 05:42:35;;;;;;;1.10;1.00;;;;;12.90;99389.00;;;;5003098;28;20200;-79
2022/09/28 05:45:03;;;;;;;1.45;1.13;;;;;12.90;99386.00;;;;5005227;28;20679;-79
2022/09/28 05:47:30;;;;;;;3.67;0.82;;;;;12.90;99393.00;;;;5007472;28;20579;-79
2022/09/28 05:49:57;;;;;;;1.65;0.65;;;;;12.90;99402.00;;;;5006981;28;20228;-79
2022/09/28 05:52:25;;;;;;;1.67;1.10;;;;;12.90;99399.00;;;;5006959;28;20208;-78
2022/09/28 05:54:52;;;;;;;2.53;1.00;;;;;12.90;99395.00;;;;5008534;28;20197;-79
2022/09/28 05:57:19;;;;;;;2.10;1.02;;;;;12.90;99394.00;;;;5006543;28;20197;-79
2022/09/28 05:59:48;;;;;;;1.42;1.13;;;;;12.90;99391.00;;;;5005316;28;20246;-79
2022/09/28 06:02:15;;;;;;;1.52;1.27;;;;;12.90;99393.00;;;;4996927;28;20212;-79
2022/09/28 06:04:42;;;;;;;1.67;1.05;;;;;12.90;99396.00;;;;5002325;28;20192;-79
2022/09/28 06:07:10;;;;;;;2.25;2.05;;;;;12.90;99390.00;;;;5006238;28;20221;-77
2022/09/28 06:09:38;;;;;;;2.38;2.10;;;;;12.90;99396.00;;;;5007878;28;20296;-79
2022/09/28 06:12:05;;;;;;;4.03;2.60;;;;;12.90;99392.00;;;;5007305;28;20201;-79
2022/09/28 06:14:32;;;;;;;2.28;2.08;;;;;12.90;99393.00;;;;5008773;28;20208;-79
2022/09/28 06:17:01;;;;;;;3.05;1.92;;;;;12.90;99394.00;;;;5007964;28;20204;-78
2022/09/28 06:19:28;;;;;;;2.05;1.60;;;;;12.90;99388.00;;;;5007078;28;20205;-79
2022/09/28 06:21:56;;;;;;;1.65;1.40;;;;;12.90;99391.00;;;;5007835;28;20208;-79
2022/09/28 06:24:23;;;;;;;2.08;1.33;;;;;12.90;99390.00;;;;5008945;28;20197;-79
2022/09/28 06:26:50;;;;;;;2.55;1.40;;;;;12.90;99392.00;;;;4998658;28;20197;-79
2022/09/28 06:29:17;;;;;;;2.13;1.52;;;;;12.90;99393.00;;;;5007155;28;20197;-79
2022/09/28 06:31:46;;;;;;;1.83;1.50;;;;;13.00;99387.00;;;;4996329;28;20250;-79
2022/09/28 06:34:14;;;;;;;1.95;1.45;;;;;12.90;99389.00;;;;5012864;28;20306;-79
2022/09/28 06:36:42;;;;;;;2.28;1.88;;;;;13.00;99397.00;;;;5005813;28;20691;-79
2022/09/28 06:39:09;;;;;;;2.30;2.03;;;;;13.00;99393.00;;;;5007348;28;20205;-79
2022/09/28 06:41:36;;;;;;;3.88;2.25;;;;;13.10;99389.00;;;;5009302;28;20578;-79
2022/09/28 06:44:03;;;;;;;2.97;2.25;;;;;13.10;99397.00;;;;5010586;28;20573;-77
2022/09/28 06:46:31;;;;;;;3.13;2.10;;;;;13.20;99398.00;;;;5007806;28;20193;-77
2022/09/28 06:48:58;;;;;;;3.22;2.22;;;;;13.20;99408.00;;;;5010319;28;20255;-78
2022/09/28 06:51:27;;;;;;;2.05;1.85;;;;;13.30;99401.00;;;;5011210;28;20225;-79
2022/09/28 06:53:55;;;;;;;2.50;1.70;;;;;13.30;99403.00;;;;5008579;28;20201;-79
2022/09/28 06:56:22;;;;;;;1.88;1.40;;;;;13.40;99407.00;;;;5007475;28;20711;-79
2022/09/28 06:58:49;;;;;;;3.60;1.50;;;;;13.50;99405.00;;;;5010703;28;20255;-79
2022/09/28 07:01:17;;;;;;;1.65;1.35;;;;;13.50;99410.00;;;;5008258;28;20193;-80
2022/09/28 07:03:44;;;;;;;1.60;1.20;;;;;13.60;99411.00;;;;5006610;28;20201;-80
2022/09/28 07:06:12;;;;;;;1.63;1.38;;;;;13.70;99418.00;;;;5011969;28;20188;-80
2022/09/28 07:08:41;;;;;;;2.28;1.23;;;;;13.70;99417.00;;;;5016913;28;20217;-80
2022/09/28 07:11:08;;;;;;;2.00;1.77;;;;;13.80;99423.00;;;;5009745;28;20232;-80
2022/09/28 07:13:36;;;;;;;2.63;2.10;;;;;13.90;99435.00;;;;5011201;28;20205;-80
2022/09/28 07:16:04;;;;;;;2.53;2.08;;;;;14.00;99424.00;;;;5010877;28;20201;-80
2022/09/28 07:18:31;;;;;;;4.50;1.98;;;;;14.10;99428.00;;;;5010217;28;20284;-80
2022/09/28 07:21:01;;;;;;;1.75;1.60;;;;;14.10;99430.00;;;;5010668;28;20200;-80
2022/09/28 07:23:29;;;;;;;1.77;1.30;;;;;14.20;99441.00;;;;5011033;28;20278;-80
2022/09/28 07:25:58;;;;;;;4.57;1.83;;;;;14.30;99442.00;;;;5010892;28;20200;-80
2022/09/28 07:28:25;;;;;;;1.67;1.58;;;;;14.40;99444.00;;;;5028764;28;20713;-80
2022/09/28 07:30:52;;;;;;;2.03;1.67;;;;;14.50;99446.00;;;;5013146;28;20229;-80
2022/09/28 07:33:20;;;;;;;1.73;1.55;;;;;14.60;99451.00;;;;5010699;28;20201;-80
2022/09/28 07:35:56;;;;;;;1.88;1.50;;;;;14.60;99455.00;;;;5010281;28;20205;-80
2022/09/28 07:38:24;;;;;;;2.22;1.05;;;;;14.80;99457.00;;;;5017336;28;20212;-81
2022/09/28 07:43:38;;;;;;;0.93;0.77;;;;;14.90;99460.00;;;;5004003;28;20212;-79
2022/09/28 07:46:10;;;;;;;0.65;0.60;;;;;15.00;99458.00;;;;5005596;28;20204;-78
2022/09/28 07:48:39;;;;;;;0.75;0.73;;;;;15.10;99471.00;;;;5006906;28;20198;-78
2022/09/28 07:51:08;;;;;;;0.60;0.50;;;;;15.20;99469.00;;;;5006547;28;20217;-79
2022/09/28 07:53:37;;;;;;;1.42;0.40;;;;;15.40;99475.00;;;;5007283;28;20197;-80
2022/09/28 07:56:06;;;;;;;0.80;0.50;;;;;15.40;99477.00;;;;5003979;28;20193;-79
2022/09/28 07:58:34;;;;;;;0.80;0.43;;;;;15.60;99467.00;;;;5005360;28;20225;-79
2022/09/28 08:01:06;;;;;;;1.55;0.65;;;;;15.60;99471.00;;;;5001864;28;20699;-77
2022/09/28 08:03:34;;;;;;;2.40;0.73;;;;;15.80;99471.00;;;;5005253;28;20576;-78
2022/09/28 08:06:04;;;;;;;0.85;0.50;;;;;15.90;99468.00;;;;5008389;28;20224;-78
2022/09/28 08:08:33;;;;;;;1.13;0.68;;;;;16.00;99471.00;;;;5008854;28;20221;-79
2022/09/28 08:11:00;;;;;;;1.02;0.60;;;;;16.10;99474.00;;;;5005517;28;20332;-79
2022/09/28 08:13:27;;;;;;;0.60;0.50;;;;;16.20;99481.00;;;;5006186;28;20197;-78
2022/09/28 08:15:55;;;;;;;0.75;0.38;;;;;16.30;99475.00;;;;5008202;28;20233;-78
2022/09/28 08:18:23;;;;;;;1.13;0.47;;;;;16.40;99490.00;;;;5000188;28;20938;-79
2022/09/28 08:23:38;;;;;;;2.00;0.40;;;;;16.60;99485.00;;;;5000004;28;20232;-80
2022/09/28 08:26:06;;;;;;;0.70;0.30;;;;;16.70;99490.00;;;;5014835;28;20201;-80
2022/09/28 08:28:33;;;;;;;0.70;0.30;;;;;16.80;99492.00;;;;5019073;28;20197;-80
2022/09/28 08:31:01;;;;;;;1.05;0.40;;;;;16.90;99492.00;;;;5008486;28;20279;-80
2022/09/28 08:33:30;;;;;;;0.65;0.30;;;;;17.00;99499.00;;;;5008983;28;20197;-80
2022/09/28 08:35:58;;;;;;;0.77;0.40;;;;;17.10;99496.00;;;;4996365;28;20212;-81
2022/09/28 08:38:26;;;;;;;0.70;0.30;;;;;17.20;99499.00;;;;5009445;28;20304;-80
2022/09/28 08:41:03;;;;;;;2.92;0.50;;;;;17.30;99503.00;;;;5003543;28;20217;-79
2022/09/28 08:43:49;;;;;;;0.65;0.40;;;;;17.40;99511.00;;;;5004481;28;20212;-80
2022/09/28 08:46:21;;;;;;;0.70;0.38;;;;;17.60;99505.00;;;;5004190;28;20197;-79
2022/09/28 08:48:54;;;;;;;0.38;0.20;;;;;17.60;99507.00;;;;5014276;28;20200;-80
2022/09/28 08:51:25;;;;;;;0.73;0.30;;;;;17.70;99500.00;;;;5014545;28;20246;-80
2022/09/28 08:53:59;;;;;;;0.47;0.20;;;;;17.80;99509.00;;;;5006496;28;20722;-80
2022/09/28 08:56:39;;;;;;;0.47;0.15;;;;;17.90;99507.00;;;;5007535;28;20185;-80
2022/09/28 08:59:13;;;;;;;0.35;0.20;;;;;18.00;99508.00;;;;5027412;28;20231;-80
2022/09/28 09:01:48;;;;;;;0.10;0.10;;;;;18.10;99516.00;;;;5010274;28;20208;-79
2022/09/28 09:04:17;;;;;;;0.88;0.20;;;;;18.20;99513.00;;;;5009185;28;20204;-80
2022/09/28 09:06:58;;;;;;;0.60;0.43;;;;;18.20;99514.00;;;;5008598;28;20216;-81
2022/09/28 09:09:37;;;;;;;0.35;0.17;;;;;18.40;99518.00;;;;4997791;28;20217;-81
2022/09/28 09:12:10;;;;;;;0.57;0.20;;;;;18.50;99526.00;;;;5004691;28;21361;-81
2022/09/28 09:15:04;;;;;;;0.52;0.20;;;;;18.60;99519.00;;;;5008397;28;20204;-80
2022/09/28 09:17:42;;;;;;;1.55;0.20;;;;;18.80;99525.00;;;;5008876;28;20197;-80
2022/09/28 09:20:19;;;;;;;0.65;0.20;;;;;18.90;99535.00;;;;5008923;28;20189;-80
2022/09/28 09:22:58;;;;;;;0.40;0.20;;;;;19.00;99538.00;;;;5008797;28;20594;-80
2022/09/28 09:25:31;;;;;;;0.57;0.17;;;;;19.20;99533.00;;;;5004944;28;20255;-80
2022/09/28 09:28:24;;;;;;;0.60;0.20;;;;;19.30;99537.00;;;;5009504;28;20196;-80
2022/09/28 09:31:04;;;;;;;0.50;0.30;;;;;19.50;99540.00;;;;4982834;28;20212;-80
2022/09/28 09:34:04;;;;;;;0.43;0.20;;;;;19.50;99529.00;;;;5009114;28;20212;-80
2022/09/28 09:36:47;;;;;;;0.35;0.13;;;;;19.60;99532.00;;;;5008227;28;20193;-80
2022/09/28 09:39:31;;;;;;;2.78;0.20;;;;;19.80;99532.00;;;;5001733;28;20200;-80
2022/09/28 09:42:10;;;;;;;0.98;0.10;;;;;19.90;99544.00;;;;5008045;28;20197;-80
2022/09/28 09:45:17;;;;;;;0.80;0.13;;;;;19.90;99554.00;;;;5002243;28;20212;-80
2022/09/28 09:47:48;;;;;;;0.88;0.20;;;;;20.10;99542.00;;;;5005271;28;20197;-79
2022/09/28 09:50:28;;;;;;;0.25;0.10;;;;;20.20;99543.00;;;;5007091;28;20260;-81
2022/09/28 09:53:00;;;;;;;0.85;0.10;;;;;20.40;99554.00;;;;5005648;28;20220;-81
2022/09/28 09:55:34;;;;;;;0.30;0.10;;;;;20.50;99548.00;;;;5008207;28;20204;-81
2022/09/28 09:58:09;;;;;;;1.27;0.35;;;;;20.60;99550.00;;;;5007923;28;20678;-80
2022/09/28 10:00:39;;;;;;;0.20;0.10;;;;;20.60;99549.00;;;;5003724;28;20212;-80
2022/09/28 10:03:06;;;;;;;0.20;0.00;;;;;20.70;99552.00;;;;4992740;28;20247;-80
2022/09/28 10:05:36;;;;;;;0.10;0.10;;;;;20.80;99546.00;;;;5008152;28;20219;-80
2022/09/28 10:08:14;;;;;;;0.20;0.10;;;;;20.70;99549.00;;;;5012016;28;20714;-81
2022/09/28 10:10:48;;;;;;;0.55;0.10;;;;;20.80;99542.00;;;;5007948;28;20204;-80
2022/09/28 10:13:16;;;;;;;0.10;0.10;;;;;21.00;99545.00;;;;5009553;28;20395;-80
2022/09/28 10:15:44;;;;;;;0.10;0.00;;;;;21.00;99556.00;;;;5010206;28;20639;-80
2022/09/28 10:18:14;;;;;;;0.20;0.10;;;;;21.10;99552.00;;;;5002713;28;20205;-79
2022/09/28 10:20:44;;;;;;;0.57;0.20;;;;;21.20;99551.00;;;;5011344;28;20205;-80
2022/09/28 10:23:19;;;;;;;0.00;0.00;;;;;21.20;99555.00;;;;5011705;28;20196;-80
2022/09/28 10:25:48;;;;;;;0.40;0.00;;;;;21.20;99551.00;;;;5011663;28;20689;-80
2022/09/28 10:28:21;;;;;;;0.10;0.10;;;;;21.20;99549.00;;;;5011371;28;20749;-80
2022/09/28 10:30:49;;;;;;;0.70;0.10;;;;;21.20;99552.00;;;;5011700;28;21235;-79
2022/09/28 10:33:29;;;;;;;0.10;0.10;;;;;21.10;99554.00;;;;5010767;28;20217;-80
2022/09/28 10:35:58;;;;;;;0.08;0.00;;;;;21.20;99562.00;;;;5010913;28;20197;-79
2022/09/28 10:38:28;;;;;;;0.40;0.00;;;;;21.20;99550.00;;;;5011397;28;20219;-79
2022/09/28 10:40:58;;;;;;;0.25;0.10;;;;;21.30;99554.00;;;;5008408;28;20198;-81
2022/09/28 10:43:29;;;;;;;0.05;0.00;;;;;21.30;99551.00;;;;5010748;28;20209;-80
2022/09/28 10:46:06;;;;;;;0.15;0.00;;;;;21.30;99551.00;;;;5010310;28;20197;-80
2022/09/28 10:48:49;;;;;;;0.15;0.10;;;;;21.30;99562.00;;;;5011829;28;20209;-80
2022/09/28 10:51:17;;;;;;;0.10;0.10;;;;;21.40;99561.00;;;;5000457;28;20208;-81
2022/09/28 10:53:59;;;;;;;0.00;0.00;;;;;21.20;99565.00;;;;4991955;28;20194;-80
2022/09/28 10:56:30;;;;;;;0.20;0.13;;;;;21.30;99566.00;;;;5015506;28;20235;-80
2022/09/28 10:58:58;;;;;;;0.40;0.00;;;;;21.40;99554.00;;;;5010105;28;20590;-80
2022/09/28 11:01:31;;;;;;;0.47;0.10;;;;;21.40;99561.00;;;;5011250;28;20201;-80
2022/09/28 11:04:01;;;;;;;1.95;0.10;;;;;21.50;99560.00;;;;5010339;28;20192;-80
2022/09/28 11:06:31;;;;;;;0.03;0.00;;;;;21.50;99562.00;;;;5011049;28;20196;-81
2022/09/28 11:09:02;;;;;;;0.03;0.00;;;;;21.50;99554.00;;;;5008708;28;20621;-80
2022/09/28 11:11:30;;;;;;;0.55;0.10;;;;;21.60;99557.00;;;;5010685;28;20694;-80
2022/09/28 11:14:01;;;;;;;1.50;0.20;;;;;21.50;99555.00;;;;5010271;28;20898;-80
2022/09/28 11:16:30;;;;;;;0.10;0.00;;;;;21.50;99560.00;;;;5014150;28;20243;-80
2022/09/28 11:19:03;;;;;;;0.60;0.38;;;;;21.50;99561.00;;;;5010529;28;20640;-80
2022/09/28 11:21:31;;;;;;;0.10;0.00;;;;;21.40;99561.00;;;;5011053;28;20830;-80
2022/09/28 11:24:05;;;;;;;0.57;0.10;;;;;21.40;99557.00;;;;5010110;28;20197;-80
2022/09/28 11:26:37;;;;;;;2.40;0.15;;;;;21.50;99555.00;;;;5006799;28;20215;-80
2022/09/28 11:29:07;;;;;;;0.17;0.10;;;;;21.50;99551.00;;;;4991087;28;20212;-80
2022/09/28 11:31:35;;;;;;;0.32;0.08;;;;;21.50;99551.00;;;;5008815;28;20217;-80
2022/09/28 11:34:13;;;;;;;0.52;0.10;;;;;21.40;99565.00;;;;5010374;28;20643;-80
2022/09/28 11:36:59;;;;;;;0.47;0.10;;;;;21.30;99555.00;;;;5010275;28;20236;-81
2022/09/28 11:39:37;;;;;;;0.15;0.10;;;;;21.30;99554.00;;;;5005494;28;20201;-81
2022/09/28 11:42:18;;;;;;;0.40;0.13;;;;;21.20;99551.00;;;;4995514;28;20682;-81
2022/09/28 11:44:47;;;;;;;0.40;0.10;;;;;21.30;99552.00;;;;5010395;28;20208;-80
2022/09/28 11:47:45;;;;;;;0.55;0.20;;;;;21.30;99550.00;;;;5010431;28;20201;-80
2022/09/28 11:50:26;;;;;;;0.13;0.10;;;;;21.40;99546.00;;;;5007824;28;20196;-82
2022/09/28 11:53:09;;;;;;;0.35;0.10;;;;;21.40;99557.00;;;;5000456;28;20240;-79
2022/09/28 11:55:43;;;;;;;0.47;0.17;;;;;21.40;99553.00;;;;5010237;28;20224;-79
2022/09/28 11:58:17;;;;;;;0.15;0.08;;;;;21.40;99566.00;;;;5016996;28;20207;-78
2022/09/28 12:00:49;;;;;;;0.40;0.10;;;;;21.30;99575.00;;;;5002664;28;20196;-80
2022/09/28 12:03:20;;;;;;;0.22;0.10;;;;;21.20;99585.00;;;;5009200;28;20212;-78
2022/09/28 12:05:51;;;;;;;1.65;0.10;;;;;21.10;99571.00;;;;5011902;28;20568;-79
2022/09/28 12:08:24;;;;;;;0.05;0.00;;;;;21.00;99574.00;;;;5010660;28;20220;-78
2022/09/28 12:10:57;;;;;;;0.00;0.00;;;;;20.90;99573.00;;;;5009097;28;20201;-79
2022/09/28 12:13:28;;;;;;;0.20;0.10;;;;;20.80;99571.00;;;;5009098;28;20716;-78
2022/09/28 12:16:00;;;;;;;0.30;0.10;;;;;20.70;99568.00;;;;5008585;28;20197;-78
2022/09/28 12:18:35;;;;;;;1.02;0.10;;;;;20.60;99571.00;;;;5012159;28;20193;-79
2022/09/28 12:21:10;;;;;;;0.00;0.00;;;;;20.50;99583.00;;;;5008052;28;20203;-79
2022/09/28 12:23:43;;;;;;;0.38;0.20;;;;;20.50;99587.00;;;;5007018;28;20203;-78
2022/09/28 12:26:31;;;;;;;0.30;0.13;;;;;20.30;99586.00;;;;5007975;28;20189;-78
2022/09/28 12:29:00;;;;;;;0.73;0.10;;;;;20.30;99580.00;;;;5010026;28;20227;-79
2022/09/28 12:31:34;;;;;;;1.10;0.10;;;;;20.20;99582.00;;;;5009727;28;20189;-78
2022/09/28 12:34:02;;;;;;;0.47;0.10;;;;;20.10;99573.00;;;;5004144;28;20580;-79
2022/09/28 12:36:49;;;;;;;0.35;0.25;;;;;19.90;99562.00;;;;5007630;28;20205;-79
2022/09/28 12:39:30;;;;;;;0.90;0.10;;;;;19.80;99554.00;;;;5003710;28;20228;-79
2022/09/28 12:42:16;;;;;;;0.20;0.10;;;;;19.70;99560.00;;;;5009156;28;20209;-79
2022/09/28 12:44:58;;;;;;;1.17;0.10;;;;;19.60;99564.00;;;;5009310;28;20315;-79
2022/09/28 12:47:42;;;;;;;0.20;0.10;;;;;19.50;99567.00;;;;5009547;28;20587;-79